Time;durP1;ratioP1;P1;durP2;ratioP2;P2;SDS_P1;SDS_P2;PMS_P1;PMS_P2;Temp;Humidity;BMP_temperature;BMP_pressure;BME280_temperature;BME280_humidity;BME280_pressure;Samples;Min_cycle;Max_cycle;Signal;HPM_P1;HPM_P2
2022/06/06 00:01:58;;;;;;;2.30;2.10;;;;;;;;;;5138831;27;20202;-61
2022/06/06 00:04:27;;;;;;;1.90;1.80;;;;;;;;;;5159271;27;20209;-61
2022/06/06 00:06:56;;;;;;;2.00;1.90;;;;;;;;;;5158251;27;20202;-61
2022/06/06 00:09:24;;;;;;;2.00;1.90;;;;;;;;;;5159046;27;20491;-61
2022/06/06 00:11:51;;;;;;;1.80;1.70;;;;;;;;;;5159003;27;20202;-61
2022/06/06 00:14:19;;;;;;;2.03;1.92;;;;;;;;;;5158810;27;20476;-61
2022/06/06 00:16:47;;;;;;;2.10;1.98;;;;;;;;;;5159140;27;20212;-61
2022/06/06 00:19:14;;;;;;;1.90;1.80;;;;;;;;;;5153147;27;20225;-61
2022/06/06 00:21:43;;;;;;;1.75;1.65;;;;;;;;;;5138043;27;20209;-61
2022/06/06 00:24:12;;;;;;;1.75;1.65;;;;;;;;;;5137230;27;20206;-61
2022/06/06 00:26:39;;;;;;;1.60;1.50;;;;;;;;;;5139407;27;20485;-61
2022/06/06 00:29:07;;;;;;;1.67;1.58;;;;;;;;;;5141439;27;20194;-60
2022/06/06 00:37:06;;;;;;;1.60;1.50;;;;;;;;;;5132220;27;20190;-61
2022/06/06 00:39:35;;;;;;;1.60;1.50;;;;;;;;;;5126477;27;20212;-61
2022/06/06 00:42:02;;;;;;;1.60;1.50;;;;;;;;;;5141287;27;20333;-61
2022/06/06 00:44:31;;;;;;;1.70;1.60;;;;;;;;;;5139178;27;20194;-61
2022/06/06 00:47:04;;;;;;;1.60;1.50;;;;;;;;;;5123713;27;20207;-66
2022/06/06 00:49:36;;;;;;;2.15;1.48;;;;;;;;;;5141435;27;20205;-61
2022/06/06 00:52:06;;;;;;;1.40;1.30;;;;;;;;;;5141883;27;20613;-61
2022/06/06 00:54:35;;;;;;;1.60;1.50;;;;;;;;;;5141227;27;20486;-61
2022/06/06 00:57:04;;;;;;;1.42;1.30;;;;;;;;;;5140742;27;20198;-61
2022/06/06 00:59:32;;;;;;;1.60;1.50;;;;;;;;;;5140740;27;20201;-61
2022/06/06 01:02:00;;;;;;;1.60;1.50;;;;;;;;;;5139058;27;20206;-61
2022/06/06 01:04:31;;;;;;;1.40;1.30;;;;;;;;;;5138277;27;20520;-61
2022/06/06 01:06:58;;;;;;;1.52;1.27;;;;;;;;;;5120918;27;20643;-61
2022/06/06 01:09:26;;;;;;;1.55;1.45;;;;;;;;;;5111551;27;20199;-61
2022/06/06 01:11:59;;;;;;;1.60;1.50;;;;;;;;;;5133762;27;20199;-61
2022/06/06 01:14:28;;;;;;;1.48;1.38;;;;;;;;;;5124907;27;20312;-61
2022/06/06 01:16:59;;;;;;;1.60;1.50;;;;;;;;;;5140946;27;20198;-61
2022/06/06 01:19:37;;;;;;;1.50;1.40;;;;;;;;;;5140758;27;20198;-61
2022/06/06 01:22:24;;;;;;;1.50;1.40;;;;;;;;;;5141082;27;20202;-60
2022/06/06 01:25:04;;;;;;;1.55;1.45;;;;;;;;;;5140419;27;20198;-60
2022/06/06 01:27:42;;;;;;;1.48;1.38;;;;;;;;;;5140854;27;20258;-60
2022/06/06 01:30:12;;;;;;;1.42;1.33;;;;;;;;;;5140737;27;20202;-61
2022/06/06 01:32:42;;;;;;;1.40;1.30;;;;;;;;;;5140844;27;20206;-60
2022/06/06 01:35:10;;;;;;;1.50;1.40;;;;;;;;;;5140422;27;20226;-60
2022/06/06 01:37:39;;;;;;;1.40;1.30;;;;;;;;;;5131772;27;20210;-60
2022/06/06 01:40:08;;;;;;;1.42;1.33;;;;;;;;;;5138705;27;20195;-60
2022/06/06 01:42:37;;;;;;;1.52;1.35;;;;;;;;;;5140522;27;20237;-60
2022/06/06 01:45:07;;;;;;;1.00;1.00;;;;;;;;;;5132690;27;20194;-60
2022/06/06 01:47:38;;;;;;;1.33;1.23;;;;;;;;;;5140207;27;20198;-61
2022/06/06 01:50:07;;;;;;;1.60;1.50;;;;;;;;;;5140048;27;20198;-60
2022/06/06 01:52:49;;;;;;;1.55;1.40;;;;;;;;;;5140192;27;20214;-60
2022/06/06 01:55:16;;;;;;;1.40;1.27;;;;;;;;;;5139012;27;20237;-61
2022/06/06 01:57:45;;;;;;;1.05;1.05;;;;;;;;;;5140460;27;20202;-61
2022/06/06 02:00:12;;;;;;;1.08;1.08;;;;;;;;;;5139288;27;20266;-61
2022/06/06 02:02:43;;;;;;;1.08;1.08;;;;;;;;;;5139943;27;20198;-61
2022/06/06 02:05:11;;;;;;;1.85;1.40;;;;;;;;;;5139673;27;20210;-61
2022/06/06 02:07:38;;;;;;;1.30;1.20;;;;;;;;;;5139206;27;20243;-61
2022/06/06 02:10:09;;;;;;;1.20;1.10;;;;;;;;;;5138950;27;20198;-61
2022/06/06 02:12:37;;;;;;;1.50;1.20;;;;;;;;;;5139725;27;20493;-61
2022/06/06 02:15:05;;;;;;;1.33;1.23;;;;;;;;;;5139765;27;20214;-61
2022/06/06 02:17:35;;;;;;;1.20;1.20;;;;;;;;;;5139520;27;20209;-61
2022/06/06 02:20:05;;;;;;;1.30;1.20;;;;;;;;;;5139214;27;20277;-61
2022/06/06 02:22:33;;;;;;;1.30;1.20;;;;;;;;;;5139671;27;20289;-61
2022/06/06 02:25:01;;;;;;;1.63;1.13;;;;;;;;;;5139073;27;20601;-61
2022/06/06 02:27:28;;;;;;;1.50;1.10;;;;;;;;;;5139822;27;20569;-61
2022/06/06 02:29:55;;;;;;;1.30;1.20;;;;;;;;;;5139209;27;20203;-61
2022/06/06 02:32:23;;;;;;;1.17;1.00;;;;;;;;;;5139574;27;20267;-61
2022/06/06 02:34:51;;;;;;;1.35;1.25;;;;;;;;;;5139143;27;20230;-61
2022/06/06 02:37:19;;;;;;;1.35;1.25;;;;;;;;;;5138908;27;20213;-61
2022/06/06 02:39:47;;;;;;;1.30;1.20;;;;;;;;;;5138730;27;20205;-61
2022/06/06 02:42:14;;;;;;;1.25;1.15;;;;;;;;;;5138471;27;20504;-61
2022/06/06 02:44:41;;;;;;;0.80;0.80;;;;;;;;;;5124138;27;20206;-61
2022/06/06 02:47:09;;;;;;;1.20;1.10;;;;;;;;;;5132091;27;20217;-61
2022/06/06 02:49:37;;;;;;;1.27;1.00;;;;;;;;;;5137943;27;20198;-61
2022/06/06 02:52:04;;;;;;;1.30;1.20;;;;;;;;;;5138224;27;20209;-61
2022/06/06 02:54:33;;;;;;;1.25;1.02;;;;;;;;;;5138516;27;20221;-61
2022/06/06 02:57:03;;;;;;;1.20;1.10;;;;;;;;;;5139145;27;20210;-61
2022/06/06 02:59:32;;;;;;;1.95;0.90;;;;;;;;;;5138626;27;20198;-61
2022/06/06 03:01:59;;;;;;;1.48;1.20;;;;;;;;;;5138730;27;20476;-61
2022/06/06 03:04:27;;;;;;;1.30;1.20;;;;;;;;;;5131022;27;20213;-61
2022/06/06 03:06:59;;;;;;;1.00;1.00;;;;;;;;;;5119331;27;20573;-61
2022/06/06 03:09:31;;;;;;;1.10;1.10;;;;;;;;;;5110689;27;20195;-61
2022/06/06 03:12:06;;;;;;;0.90;0.90;;;;;;;;;;5132014;27;20217;-61
2022/06/06 03:14:47;;;;;;;1.10;1.00;;;;;;;;;;5138495;27;20221;-61
2022/06/06 03:23:04;;;;;;;1.00;1.00;;;;;;;;;;5118505;27;20725;-60
2022/06/06 03:25:34;;;;;;;1.33;1.00;;;;;;;;;;5138600;27;20262;-60
2022/06/06 03:28:07;;;;;;;1.23;1.10;;;;;;;;;;5118658;27;20199;-60
2022/06/06 03:30:39;;;;;;;1.42;1.10;;;;;;;;;;5117519;28;20221;-60
2022/06/06 03:33:13;;;;;;;1.08;1.00;;;;;;;;;;5118174;28;20234;-60
2022/06/06 03:35:42;;;;;;;1.20;1.20;;;;;;;;;;5118474;28;20226;-60
2022/06/06 03:38:13;;;;;;;1.00;0.98;;;;;;;;;;5119757;28;20210;-60
2022/06/06 03:40:43;;;;;;;1.00;1.00;;;;;;;;;;5138001;27;20202;-60
2022/06/06 03:43:18;;;;;;;1.10;1.00;;;;;;;;;;5138399;28;20488;-60
2022/06/06 03:45:49;;;;;;;1.10;1.10;;;;;;;;;;5138809;28;20224;-61
2022/06/06 03:48:23;;;;;;;1.08;1.00;;;;;;;;;;5138239;28;20209;-61
2022/06/06 03:50:53;;;;;;;1.00;1.00;;;;;;;;;;5138299;28;20205;-61
2022/06/06 03:53:24;;;;;;;1.20;1.10;;;;;;;;;;5130411;28;20230;-62
2022/06/06 03:56:03;;;;;;;1.00;0.95;;;;;;;;;;5097226;28;20231;-61
2022/06/06 03:58:32;;;;;;;1.40;0.93;;;;;;;;;;5098481;28;20306;-61
2022/06/06 04:01:01;;;;;;;1.70;1.10;;;;;;;;;;5117971;28;20203;-61
2022/06/06 04:03:29;;;;;;;1.00;1.00;;;;;;;;;;5121908;28;20205;-61
2022/06/06 04:05:57;;;;;;;1.27;1.08;;;;;;;;;;5121422;28;20187;-61
2022/06/06 04:08:25;;;;;;;1.25;1.15;;;;;;;;;;5121741;28;20191;-61
2022/06/06 04:11:00;;;;;;;1.13;1.08;;;;;;;;;;5121215;28;20202;-61
2022/06/06 04:13:36;;;;;;;1.25;0.90;;;;;;;;;;5121374;28;20570;-61
2022/06/06 04:16:10;;;;;;;1.65;1.10;;;;;;;;;;5120697;28;20230;-61
2022/06/06 04:18:43;;;;;;;1.95;1.20;;;;;;;;;;5120579;28;20195;-61
2022/06/06 04:21:15;;;;;;;1.17;1.05;;;;;;;;;;5121787;28;20207;-61
2022/06/06 04:23:55;;;;;;;1.35;1.30;;;;;;;;;;5120939;28;20206;-61
2022/06/06 04:26:27;;;;;;;1.45;1.25;;;;;;;;;;5121180;28;20195;-60
2022/06/06 04:29:03;;;;;;;1.77;1.30;;;;;;;;;;5120465;28;20608;-60
2022/06/06 04:31:36;;;;;;;1.38;1.27;;;;;;;;;;5100625;28;20203;-60
2022/06/06 04:34:09;;;;;;;1.38;1.27;;;;;;;;;;5105454;28;20465;-60
2022/06/06 04:36:39;;;;;;;1.20;1.10;;;;;;;;;;5121012;28;20227;-61
2022/06/06 04:39:09;;;;;;;1.10;1.10;;;;;;;;;;5120703;28;20290;-61
2022/06/06 04:41:40;;;;;;;1.40;1.30;;;;;;;;;;5128638;27;20505;-60
2022/06/06 04:44:14;;;;;;;1.33;1.23;;;;;;;;;;5124529;27;20485;-60
2022/06/06 04:46:43;;;;;;;1.35;1.25;;;;;;;;;;5120540;28;20200;-61
2022/06/06 04:49:11;;;;;;;1.38;1.30;;;;;;;;;;5128111;27;20573;-61
2022/06/06 04:51:40;;;;;;;1.30;1.20;;;;;;;;;;5141137;27;20198;-61
2022/06/06 04:54:10;;;;;;;1.45;1.35;;;;;;;;;;5140958;27;20194;-61
2022/06/06 04:56:39;;;;;;;1.25;1.15;;;;;;;;;;5140943;27;20226;-61
2022/06/06 04:59:10;;;;;;;1.30;1.20;;;;;;;;;;5140497;27;20206;-61
2022/06/06 05:01:40;;;;;;;1.42;1.30;;;;;;;;;;5141569;27;20251;-61
2022/06/06 05:04:07;;;;;;;1.25;1.23;;;;;;;;;;5136315;27;20195;-61
2022/06/06 05:06:41;;;;;;;1.50;1.40;;;;;;;;;;5119649;28;20507;-61
2022/06/06 05:09:17;;;;;;;1.40;1.30;;;;;;;;;;5126959;27;20205;-61
2022/06/06 05:11:48;;;;;;;1.48;1.38;;;;;;;;;;5140432;27;20198;-61
2022/06/06 05:14:35;;;;;;;1.60;1.50;;;;;;;;;;5123779;27;20589;-60
2022/06/06 05:17:20;;;;;;;1.50;1.40;;;;;;;;;;5107453;27;20230;-61
2022/06/06 05:20:00;;;;;;;1.70;1.58;;;;;;;;;;5089329;27;20203;-61
2022/06/06 05:22:37;;;;;;;1.40;1.30;;;;;;;;;;5120029;28;20213;-61
2022/06/06 05:25:14;;;;;;;1.60;1.50;;;;;;;;;;5119467;27;20198;-60
2022/06/06 05:28:00;;;;;;;1.60;1.50;;;;;;;;;;5119527;27;20206;-61
2022/06/06 05:30:32;;;;;;;1.55;1.45;;;;;;;;;;5119283;27;20281;-61
2022/06/06 05:33:03;;;;;;;1.77;1.67;;;;;;;;;;5119364;28;20203;-61
2022/06/06 05:35:39;;;;;;;1.50;1.40;;;;;;;;;;5134514;27;20222;-61
2022/06/06 05:38:12;;;;;;;1.80;1.70;;;;;;;;;;5139646;27;20201;-61
2022/06/06 05:40:41;;;;;;;1.55;1.45;;;;;;;;;;5139100;27;20220;-60
2022/06/06 05:43:15;;;;;;;1.60;1.50;;;;;;;;;;5139240;27;20574;-60
2022/06/06 05:45:48;;;;;;;1.60;1.50;;;;;;;;;;5138409;27;20518;-60
2022/06/06 05:48:21;;;;;;;1.98;1.88;;;;;;;;;;5139064;27;20259;-60
2022/06/06 05:50:57;;;;;;;1.60;1.50;;;;;;;;;;5140639;27;20202;-60
2022/06/06 05:53:35;;;;;;;1.90;1.80;;;;;;;;;;5139878;27;20206;-60
2022/06/06 05:56:10;;;;;;;1.60;1.50;;;;;;;;;;5139704;27;20624;-63
2022/06/06 05:58:47;;;;;;;1.70;1.60;;;;;;;;;;5138854;27;20488;-60
2022/06/06 06:01:22;;;;;;;2.03;1.63;;;;;;;;;;5139409;27;20521;-60
2022/06/06 06:04:00;;;;;;;1.67;1.45;;;;;;;;;;5138487;27;20194;-60
2022/06/06 06:06:30;;;;;;;1.67;1.58;;;;;;;;;;5139648;27;20258;-60
2022/06/06 06:09:09;;;;;;;1.60;1.45;;;;;;;;;;5138854;27;20194;-61
2022/06/06 06:11:55;;;;;;;2.05;1.83;;;;;;;;;;5138249;27;20198;-61
2022/06/06 06:14:28;;;;;;;1.90;1.80;;;;;;;;;;5138849;27;20217;-60
2022/06/06 06:16:57;;;;;;;1.75;1.63;;;;;;;;;;5138791;27;20248;-60
2022/06/06 06:19:27;;;;;;;1.80;1.70;;;;;;;;;;5138132;27;20205;-60
2022/06/06 06:21:57;;;;;;;2.10;2.00;;;;;;;;;;5139099;27;20518;-60
2022/06/06 06:24:26;;;;;;;1.85;1.75;;;;;;;;;;5138110;27;20204;-60
2022/06/06 06:26:56;;;;;;;1.90;1.80;;;;;;;;;;5138312;27;20497;-61
2022/06/06 06:29:24;;;;;;;2.10;1.90;;;;;;;;;;5138516;27;20198;-61
2022/06/06 06:32:02;;;;;;;2.47;1.90;;;;;;;;;;5138583;27;20195;-60
2022/06/06 06:34:35;;;;;;;1.88;1.77;;;;;;;;;;5137796;27;20472;-60
2022/06/06 06:37:14;;;;;;;2.47;2.10;;;;;;;;;;5139037;27;20736;-60
2022/06/06 06:39:51;;;;;;;1.90;1.80;;;;;;;;;;5138422;27;20508;-60
2022/06/06 06:42:27;;;;;;;2.90;2.03;;;;;;;;;;5138833;27;20261;-60
2022/06/06 06:44:56;;;;;;;2.63;2.13;;;;;;;;;;5138091;27;20202;-60
2022/06/06 06:47:28;;;;;;;2.40;2.20;;;;;;;;;;5136790;27;20198;-60
2022/06/06 06:49:59;;;;;;;2.30;2.20;;;;;;;;;;5137675;27;20199;-60
2022/06/06 06:52:36;;;;;;;2.40;2.30;;;;;;;;;;5138142;27;20224;-61
2022/06/06 06:55:08;;;;;;;2.25;2.05;;;;;;;;;;5137455;27;20186;-60
2022/06/06 06:57:43;;;;;;;2.42;2.30;;;;;;;;;;5138213;27;20222;-61
2022/06/06 07:00:11;;;;;;;2.30;2.10;;;;;;;;;;5137066;27;20197;-60
2022/06/06 07:08:34;;;;;;;2.67;2.33;;;;;;;;;;5137147;27;20193;-60
2022/06/06 07:11:16;;;;;;;2.60;2.40;;;;;;;;;;5138515;27;20213;-61
2022/06/06 07:13:49;;;;;;;2.35;2.13;;;;;;;;;;5134682;27;20541;-60
2022/06/06 07:16:21;;;;;;;2.30;2.10;;;;;;;;;;5136137;27;20222;-60
2022/06/06 07:18:51;;;;;;;2.13;2.00;;;;;;;;;;5135506;27;20671;-60
2022/06/06 07:21:19;;;;;;;2.00;1.90;;;;;;;;;;5135969;27;20209;-60
2022/06/06 07:23:49;;;;;;;2.20;2.00;;;;;;;;;;5137173;27;20195;-60
2022/06/06 07:26:18;;;;;;;2.67;2.40;;;;;;;;;;5137575;27;20215;-60
2022/06/06 07:28:45;;;;;;;2.30;2.20;;;;;;;;;;5137131;27;20218;-60
2022/06/06 07:31:17;;;;;;;2.53;2.30;;;;;;;;;;5136689;27;20247;-60
2022/06/06 07:34:02;;;;;;;2.15;2.05;;;;;;;;;;5137312;28;20461;-60
2022/06/06 07:36:33;;;;;;;2.50;2.38;;;;;;;;;;5121916;27;20245;-61
2022/06/06 07:39:08;;;;;;;2.50;2.30;;;;;;;;;;5141578;27;20205;-60
2022/06/06 07:41:42;;;;;;;3.35;2.35;;;;;;;;;;5141619;27;20229;-61
2022/06/06 07:44:17;;;;;;;2.20;2.00;;;;;;;;;;5141441;27;20198;-60
2022/06/06 07:46:48;;;;;;;2.40;2.20;;;;;;;;;;5141709;27;20201;-60
2022/06/06 07:49:19;;;;;;;2.03;1.92;;;;;;;;;;5141553;27;20210;-61
2022/06/06 07:51:50;;;;;;;3.67;2.13;;;;;;;;;;5140624;27;20261;-60
2022/06/06 07:54:33;;;;;;;2.15;2.05;;;;;;;;;;5141325;27;20199;-60
2022/06/06 07:57:03;;;;;;;2.05;1.95;;;;;;;;;;5140735;27;20240;-60
2022/06/06 07:59:38;;;;;;;2.38;2.17;;;;;;;;;;5141733;27;20198;-60
2022/06/06 08:02:14;;;;;;;2.42;2.20;;;;;;;;;;5142064;27;20216;-60
2022/06/06 08:04:47;;;;;;;2.20;1.98;;;;;;;;;;5140944;27;20205;-60
2022/06/06 08:07:19;;;;;;;2.60;2.25;;;;;;;;;;5141753;27;20608;-60
2022/06/06 08:10:01;;;;;;;2.40;2.20;;;;;;;;;;5141175;27;20198;-60
2022/06/06 08:12:39;;;;;;;2.20;2.10;;;;;;;;;;5141701;27;20202;-60
2022/06/06 08:15:13;;;;;;;2.30;2.20;;;;;;;;;;5140441;27;20205;-60
2022/06/06 08:17:48;;;;;;;2.47;2.22;;;;;;;;;;5140744;27;20218;-60
2022/06/06 08:20:20;;;;;;;3.47;2.00;;;;;;;;;;5141185;27;20206;-60
2022/06/06 08:22:48;;;;;;;2.88;2.00;;;;;;;;;;5140918;27;20209;-60
2022/06/06 08:25:19;;;;;;;2.50;2.30;;;;;;;;;;5140786;27;20225;-60
2022/06/06 08:27:49;;;;;;;2.05;1.95;;;;;;;;;;5140622;27;20301;-60
2022/06/06 08:30:17;;;;;;;2.38;2.17;;;;;;;;;;5140270;27;20194;-60
2022/06/06 08:32:46;;;;;;;2.75;2.03;;;;;;;;;;5140584;27;20195;-60
2022/06/06 08:35:13;;;;;;;1.92;1.80;;;;;;;;;;5139830;27;20202;-60
2022/06/06 08:37:58;;;;;;;2.30;2.10;;;;;;;;;;5139187;27;20222;-60
2022/06/06 08:40:49;;;;;;;2.45;2.20;;;;;;;;;;5139690;27;20198;-60
2022/06/06 08:43:20;;;;;;;2.15;1.95;;;;;;;;;;5114866;27;20208;-60
2022/06/06 08:45:52;;;;;;;2.33;2.17;;;;;;;;;;5139527;27;20510;-61
2022/06/06 08:48:29;;;;;;;2.45;2.25;;;;;;;;;;5138777;27;20479;-60
2022/06/06 08:51:01;;;;;;;2.55;2.30;;;;;;;;;;5138369;27;20202;-60
2022/06/06 08:53:44;;;;;;;1.90;1.80;;;;;;;;;;5139391;27;20691;-60
2022/06/06 08:56:29;;;;;;;1.95;1.85;;;;;;;;;;5139612;27;20591;-61
2022/06/06 08:59:07;;;;;;;4.25;2.05;;;;;;;;;;5139016;27;20202;-60
2022/06/06 09:01:46;;;;;;;2.08;1.95;;;;;;;;;;5139099;27;20642;-60
2022/06/06 09:04:37;;;;;;;3.53;2.10;;;;;;;;;;5138833;27;20202;-60
2022/06/06 09:07:27;;;;;;;2.60;2.28;;;;;;;;;;5139035;27;20198;-60
2022/06/06 09:10:11;;;;;;;2.50;2.30;;;;;;;;;;5139616;27;20292;-60
2022/06/06 09:12:51;;;;;;;2.85;2.13;;;;;;;;;;5138656;27;20198;-60
2022/06/06 09:15:39;;;;;;;2.70;2.08;;;;;;;;;;5137563;27;20716;-60
2022/06/06 09:18:28;;;;;;;3.65;2.22;;;;;;;;;;5130225;27;20210;-60
2022/06/06 09:21:08;;;;;;;2.13;2.00;;;;;;;;;;5132686;27;20202;-60
2022/06/06 09:23:53;;;;;;;2.92;2.40;;;;;;;;;;5136665;27;20194;-60
2022/06/06 09:26:25;;;;;;;2.40;2.20;;;;;;;;;;5138203;27;20581;-60
2022/06/06 09:29:11;;;;;;;2.50;2.20;;;;;;;;;;5138347;27;20202;-61
2022/06/06 09:31:56;;;;;;;2.25;2.03;;;;;;;;;;5138332;27;20221;-60
2022/06/06 09:34:44;;;;;;;2.20;2.10;;;;;;;;;;5138194;27;20205;-60
2022/06/06 09:37:25;;;;;;;2.33;2.10;;;;;;;;;;5130965;27;20644;-60
2022/06/06 09:39:56;;;;;;;2.53;2.20;;;;;;;;;;5138695;27;20199;-60
2022/06/06 09:42:46;;;;;;;2.30;2.10;;;;;;;;;;5139096;27;20230;-60
2022/06/06 09:45:34;;;;;;;2.20;2.00;;;;;;;;;;5120151;27;20205;-60
2022/06/06 09:48:13;;;;;;;2.33;2.20;;;;;;;;;;5109360;28;20214;-60
2022/06/06 09:50:51;;;;;;;2.60;2.03;;;;;;;;;;5117134;28;20474;-60
2022/06/06 09:53:33;;;;;;;2.00;1.90;;;;;;;;;;5117803;27;20248;-60
2022/06/06 09:59:31;;;;;;;2.10;2.00;;;;;;;;;;5136707;27;20198;-60
2022/06/06 10:02:14;;;;;;;2.17;2.00;;;;;;;;;;5137282;27;20416;-60
2022/06/06 10:04:56;;;;;;;2.50;2.30;;;;;;;;;;5125899;27;20199;-60
2022/06/06 10:07:33;;;;;;;2.40;2.20;;;;;;;;;;5117500;28;20309;-60
2022/06/06 10:10:12;;;;;;;2.10;2.00;;;;;;;;;;5117772;28;20207;-60
2022/06/06 10:12:47;;;;;;;2.17;1.98;;;;;;;;;;5136218;27;20206;-60
2022/06/06 10:15:40;;;;;;;2.90;1.95;;;;;;;;;;5137307;27;20213;-60
2022/06/06 10:18:17;;;;;;;2.50;2.28;;;;;;;;;;5137106;27;20233;-60
2022/06/06 10:20:55;;;;;;;2.33;2.20;;;;;;;;;;5135607;27;20202;-61
2022/06/06 10:23:37;;;;;;;2.53;2.08;;;;;;;;;;5132974;27;20199;-61
2022/06/06 10:26:23;;;;;;;2.65;2.00;;;;;;;;;;5114108;28;20201;-61
2022/06/06 10:28:58;;;;;;;2.72;1.90;;;;;;;;;;5115832;28;20194;-61
2022/06/06 10:31:33;;;;;;;2.35;1.70;;;;;;;;;;5116268;28;20187;-60
2022/06/06 10:34:09;;;;;;;2.10;2.00;;;;;;;;;;5116702;28;20558;-60
2022/06/06 10:36:52;;;;;;;2.33;2.13;;;;;;;;;;5115759;28;20203;-60
2022/06/06 10:39:29;;;;;;;2.10;1.90;;;;;;;;;;5115725;28;20203;-60
2022/06/06 10:42:14;;;;;;;2.00;1.90;;;;;;;;;;5115419;28;20230;-60
2022/06/06 10:44:56;;;;;;;2.33;2.15;;;;;;;;;;5114134;28;20218;-60
2022/06/06 10:47:32;;;;;;;1.88;1.77;;;;;;;;;;5114717;28;20195;-60
2022/06/06 10:50:03;;;;;;;2.13;2.00;;;;;;;;;;5116370;28;20209;-60
2022/06/06 10:52:50;;;;;;;1.90;1.80;;;;;;;;;;5115696;28;20602;-60
2022/06/06 10:55:35;;;;;;;2.95;2.15;;;;;;;;;;5115159;28;20191;-61
2022/06/06 10:58:24;;;;;;;2.63;1.80;;;;;;;;;;5100061;28;20614;-60
2022/06/06 11:01:20;;;;;;;2.38;2.17;;;;;;;;;;5117098;28;20206;-60
2022/06/06 11:04:04;;;;;;;2.33;2.20;;;;;;;;;;5116105;28;20199;-60
2022/06/06 11:07:05;;;;;;;2.45;2.25;;;;;;;;;;5116454;28;20214;-60
2022/06/06 11:09:43;;;;;;;2.80;2.47;;;;;;;;;;5033019;28;20202;-60
2022/06/06 11:12:34;;;;;;;2.45;2.25;;;;;;;;;;5032925;28;20220;-60
2022/06/06 11:15:04;;;;;;;2.20;2.00;;;;;;;;;;5051802;28;20327;-60
2022/06/06 11:17:43;;;;;;;2.65;2.20;;;;;;;;;;5115779;28;20229;-61
2022/06/06 11:20:19;;;;;;;2.17;1.98;;;;;;;;;;5116389;28;20644;-61
2022/06/06 11:22:51;;;;;;;2.92;2.20;;;;;;;;;;5116644;28;20209;-61
2022/06/06 11:25:19;;;;;;;2.30;2.13;;;;;;;;;;5115429;28;20207;-61
2022/06/06 11:27:57;;;;;;;2.22;2.13;;;;;;;;;;5114697;28;20191;-61
2022/06/06 11:30:36;;;;;;;2.38;2.28;;;;;;;;;;5114854;28;20225;-61
2022/06/06 11:33:23;;;;;;;2.40;2.20;;;;;;;;;;5123603;28;20281;-61
2022/06/06 11:36:03;;;;;;;2.72;2.45;;;;;;;;;;5115066;28;20191;-60
2022/06/06 11:38:50;;;;;;;2.55;2.35;;;;;;;;;;5115324;28;20229;-60
2022/06/06 11:41:32;;;;;;;2.38;2.17;;;;;;;;;;5120985;28;20229;-60
2022/06/06 11:44:17;;;;;;;2.40;2.20;;;;;;;;;;5127130;28;20195;-61
2022/06/06 11:47:17;;;;;;;2.53;2.33;;;;;;;;;;5123993;28;20202;-60
2022/06/06 11:50:00;;;;;;;2.30;2.10;;;;;;;;;;5136138;28;20198;-60
2022/06/06 11:52:43;;;;;;;2.33;2.17;;;;;;;;;;5132455;28;20209;-60
2022/06/06 11:55:25;;;;;;;2.38;2.17;;;;;;;;;;5136766;28;20304;-60
2022/06/06 11:58:08;;;;;;;2.20;2.03;;;;;;;;;;5129472;28;20215;-60
2022/06/06 12:00:40;;;;;;;2.42;2.22;;;;;;;;;;5126361;28;20198;-60
2022/06/06 12:03:20;;;;;;;2.38;2.00;;;;;;;;;;5136816;28;20272;-59
2022/06/06 12:06:02;;;;;;;2.30;2.10;;;;;;;;;;5136277;28;20197;-59
2022/06/06 12:08:50;;;;;;;2.35;2.15;;;;;;;;;;5136657;28;20209;-60
2022/06/06 12:11:29;;;;;;;3.72;2.17;;;;;;;;;;5119046;28;20794;-60
2022/06/06 12:14:07;;;;;;;2.10;2.00;;;;;;;;;;5116659;28;20203;-60
2022/06/06 12:16:39;;;;;;;2.50;2.30;;;;;;;;;;5115358;28;20207;-60
2022/06/06 12:19:34;;;;;;;2.40;2.20;;;;;;;;;;5115116;28;20231;-60
2022/06/06 12:22:16;;;;;;;2.08;1.98;;;;;;;;;;5115557;28;20203;-60
2022/06/06 12:25:02;;;;;;;2.15;1.95;;;;;;;;;;5121206;27;20207;-60
2022/06/06 12:27:42;;;;;;;2.60;2.40;;;;;;;;;;5139263;27;20194;-61
2022/06/06 12:30:20;;;;;;;2.45;2.10;;;;;;;;;;5129697;27;20220;-61
2022/06/06 12:32:52;;;;;;;2.50;2.30;;;;;;;;;;5138444;27;20219;-61
2022/06/06 12:35:23;;;;;;;2.30;2.10;;;;;;;;;;5119769;27;20298;-61
2022/06/06 12:37:59;;;;;;;2.22;2.03;;;;;;;;;;5118082;28;20243;-61
2022/06/06 12:40:29;;;;;;;2.22;1.88;;;;;;;;;;5117909;28;20579;-61
2022/06/06 12:43:02;;;;;;;2.83;2.35;;;;;;;;;;5118285;28;20238;-61
2022/06/06 12:45:38;;;;;;;2.95;2.10;;;;;;;;;;5131312;27;20194;-61
2022/06/06 12:48:13;;;;;;;2.38;2.17;;;;;;;;;;5138541;27;20217;-61
2022/06/06 12:50:46;;;;;;;2.22;2.10;;;;;;;;;;5121650;27;20199;-61
2022/06/06 12:53:23;;;;;;;2.30;2.10;;;;;;;;;;5117018;28;20231;-60
2022/06/06 12:58:40;;;;;;;2.60;2.03;;;;;;;;;;5135513;27;20220;-60
2022/06/06 13:04:03;;;;;;;2.13;2.03;;;;;;;;;;5121054;27;20250;-60
2022/06/06 13:06:39;;;;;;;2.50;1.90;;;;;;;;;;5138139;27;20204;-60
2022/06/06 13:09:17;;;;;;;2.13;2.00;;;;;;;;;;5136656;27;20263;-60
2022/06/06 13:11:49;;;;;;;2.70;2.13;;;;;;;;;;5136499;27;20199;-60
2022/06/06 13:14:32;;;;;;;3.10;2.05;;;;;;;;;;5137637;27;20262;-60
2022/06/06 13:17:05;;;;;;;1.90;1.80;;;;;;;;;;5135545;27;20228;-60
2022/06/06 13:19:42;;;;;;;2.15;2.00;;;;;;;;;;5126707;27;20226;-61
2022/06/06 13:22:20;;;;;;;2.85;1.95;;;;;;;;;;5116265;28;20198;-61
2022/06/06 13:25:07;;;;;;;2.00;1.90;;;;;;;;;;5116881;28;20199;-60
2022/06/06 13:27:35;;;;;;;2.20;2.00;;;;;;;;;;5135826;27;20270;-61
2022/06/06 13:30:26;;;;;;;1.90;1.80;;;;;;;;;;5123157;27;20264;-61
2022/06/06 13:32:59;;;;;;;1.98;1.88;;;;;;;;;;5098391;28;20199;-60
2022/06/06 13:35:30;;;;;;;2.63;1.85;;;;;;;;;;5131991;27;20209;-62
2022/06/06 13:38:10;;;;;;;2.13;1.92;;;;;;;;;;5137915;27;20234;-60
2022/06/06 13:40:44;;;;;;;2.35;2.05;;;;;;;;;;5136766;27;20203;-60
2022/06/06 13:43:44;;;;;;;2.15;1.77;;;;;;;;;;5135303;27;20325;-60
2022/06/06 13:46:23;;;;;;;2.33;2.05;;;;;;;;;;5121490;27;20197;-60
2022/06/06 13:48:58;;;;;;;2.33;2.13;;;;;;;;;;5121920;27;20230;-60
2022/06/06 13:51:31;;;;;;;2.85;1.95;;;;;;;;;;5136941;27;20201;-60
2022/06/06 13:54:05;;;;;;;5.88;1.83;;;;;;;;;;5129538;27;20206;-60
2022/06/06 13:56:38;;;;;;;2.78;1.70;;;;;;;;;;5116313;28;20198;-61
2022/06/06 13:59:12;;;;;;;2.97;1.83;;;;;;;;;;5115656;28;20225;-61
2022/06/06 14:01:47;;;;;;;2.00;1.77;;;;;;;;;;5116002;28;20199;-61
2022/06/06 14:04:36;;;;;;;1.90;1.70;;;;;;;;;;5124659;27;20194;-61
2022/06/06 14:07:17;;;;;;;2.08;1.98;;;;;;;;;;5082093;28;20499;-61
2022/06/06 14:09:46;;;;;;;1.75;1.65;;;;;;;;;;5115729;28;20198;-61
2022/06/06 14:12:19;;;;;;;2.13;1.90;;;;;;;;;;5115247;28;20218;-61
2022/06/06 14:14:48;;;;;;;1.67;1.58;;;;;;;;;;5114689;28;20199;-61
2022/06/06 14:17:23;;;;;;;1.63;1.52;;;;;;;;;;5117189;27;20211;-60
2022/06/06 14:19:55;;;;;;;2.17;1.42;;;;;;;;;;5135349;27;20205;-60
2022/06/06 14:22:30;;;;;;;1.58;1.48;;;;;;;;;;5135583;27;20202;-60
2022/06/06 14:25:01;;;;;;;1.40;1.30;;;;;;;;;;5133333;27;20202;-60
2022/06/06 14:27:30;;;;;;;1.40;1.30;;;;;;;;;;5136376;27;20205;-60
2022/06/06 14:29:59;;;;;;;1.48;1.38;;;;;;;;;;5133928;27;20209;-60
2022/06/06 14:32:27;;;;;;;1.73;1.27;;;;;;;;;;5135041;27;20267;-61
2022/06/06 14:34:56;;;;;;;1.30;1.17;;;;;;;;;;5131583;27;20194;-60
2022/06/06 14:37:26;;;;;;;1.50;1.40;;;;;;;;;;5136797;27;20285;-60
2022/06/06 14:39:54;;;;;;;1.25;1.15;;;;;;;;;;5132784;27;20248;-60
2022/06/06 14:42:26;;;;;;;1.40;1.30;;;;;;;;;;5128344;27;20233;-60
2022/06/06 14:44:59;;;;;;;1.30;1.20;;;;;;;;;;5116148;27;20195;-60
2022/06/06 14:47:27;;;;;;;1.08;0.98;;;;;;;;;;5104264;27;20194;-61
2022/06/06 14:52:54;;;;;;;1.75;1.10;;;;;;;;;;5136367;27;20231;-60
2022/06/06 14:55:23;;;;;;;1.73;1.30;;;;;;;;;;5115852;28;20306;-60
2022/06/06 14:57:52;;;;;;;1.65;1.25;;;;;;;;;;5115336;28;20374;-59
2022/06/06 15:00:33;;;;;;;1.10;1.00;;;;;;;;;;5134551;27;20194;-60
2022/06/06 15:03:04;;;;;;;1.20;1.10;;;;;;;;;;5135852;27;20202;-60
2022/06/06 15:05:33;;;;;;;1.15;1.05;;;;;;;;;;5134157;27;20198;-60
2022/06/06 15:08:03;;;;;;;1.42;1.33;;;;;;;;;;5114727;27;20234;-60
2022/06/06 15:10:34;;;;;;;2.08;1.20;;;;;;;;;;5134302;27;20290;-60
2022/06/06 15:13:02;;;;;;;1.27;1.17;;;;;;;;;;5132935;27;20213;-60
2022/06/06 15:15:29;;;;;;;2.03;1.05;;;;;;;;;;5140008;27;20193;-60
2022/06/06 15:17:59;;;;;;;1.33;1.23;;;;;;;;;;5156423;27;20197;-60
2022/06/06 15:20:29;;;;;;;1.23;1.17;;;;;;;;;;5138848;27;20226;-60
2022/06/06 15:22:58;;;;;;;1.70;1.52;;;;;;;;;;5135266;27;20206;-60
2022/06/06 15:25:31;;;;;;;1.38;1.27;;;;;;;;;;5135633;27;20229;-60
2022/06/06 15:28:04;;;;;;;1.25;1.17;;;;;;;;;;5135303;27;20198;-61
2022/06/06 15:30:32;;;;;;;1.42;1.33;;;;;;;;;;5134987;27;20203;-61
2022/06/06 15:33:04;;;;;;;1.23;1.13;;;;;;;;;;5135155;27;20202;-61
2022/06/06 15:35:49;;;;;;;1.30;1.20;;;;;;;;;;5134659;27;20259;-61
2022/06/06 15:38:20;;;;;;;1.45;1.30;;;;;;;;;;5124696;28;20459;-60
2022/06/06 15:40:51;;;;;;;1.52;1.42;;;;;;;;;;5135474;27;20596;-60
2022/06/06 15:43:27;;;;;;;1.40;1.30;;;;;;;;;;5135838;28;20190;-60
2022/06/06 15:45:58;;;;;;;1.77;1.48;;;;;;;;;;5120706;28;20209;-60
2022/06/06 15:48:33;;;;;;;1.40;1.30;;;;;;;;;;5127121;27;20578;-61
2022/06/06 15:51:06;;;;;;;1.50;1.40;;;;;;;;;;5135128;28;20280;-60
2022/06/06 15:53:51;;;;;;;1.60;1.40;;;;;;;;;;5117314;28;20186;-61
2022/06/06 15:56:24;;;;;;;2.45;1.73;;;;;;;;;;5134502;27;20194;-61